createdAt,value
2022-09-01T00:01:58.575Z,1.90
2022-09-01T00:04:28.580Z,1.33
2022-09-01T00:06:55.364Z,1.27
2022-09-01T00:09:23.313Z,1.57
2022-09-01T00:11:53.942Z,1.77
2022-09-01T00:14:31.128Z,1.70
2022-09-01T00:17:01.072Z,1.87
2022-09-01T00:19:27.708Z,1.93
2022-09-01T00:21:54.312Z,2.10
2022-09-01T00:24:20.799Z,1.70
2022-09-01T00:26:47.681Z,1.70
2022-09-01T00:29:14.161Z,1.90
2022-09-01T00:31:41.582Z,2.27
2022-09-01T00:34:08.014Z,2.53
2022-09-01T00:36:34.761Z,1.70
2022-09-01T00:39:01.594Z,1.53
2022-09-01T00:41:33.849Z,1.97
2022-09-01T00:44:05.378Z,2.00
2022-09-01T00:46:41.771Z,1.97
2022-09-01T00:49:18.599Z,2.17
2022-09-01T00:51:48.042Z,2.00
2022-09-01T00:54:24.368Z,2.00
2022-09-01T00:56:57.567Z,2.47
2022-09-01T00:59:26.479Z,2.10
2022-09-01T01:01:54.456Z,1.80
2022-09-01T01:04:21.072Z,1.60
2022-09-01T01:06:58.398Z,2.40
2022-09-01T01:09:27.383Z,1.80
2022-09-01T01:11:53.678Z,1.37
2022-09-01T01:14:20.032Z,2.27
2022-09-01T01:16:51.905Z,2.00
2022-09-01T01:19:41.844Z,1.83
2022-09-01T01:22:32.247Z,1.80
2022-09-01T01:24:58.773Z,2.43
2022-09-01T01:27:25.144Z,2.47
2022-09-01T01:29:52.784Z,2.20
2022-09-01T01:32:20.872Z,1.80
2022-09-01T01:34:48.842Z,1.90
2022-09-01T01:37:15.451Z,2.33
2022-09-01T01:39:42.808Z,2.20
2022-09-01T01:42:10.108Z,2.17
2022-09-01T01:44:38.192Z,1.83
2022-09-01T01:47:08.333Z,1.50
2022-09-01T01:49:35.582Z,2.50
2022-09-01T01:52:02.852Z,2.20
2022-09-01T01:54:32.835Z,2.23
2022-09-01T01:57:00.761Z,2.30
2022-09-01T01:59:29.533Z,2.13
2022-09-01T02:01:57.042Z,1.90
2022-09-01T02:04:23.376Z,2.00
2022-09-01T02:06:52.087Z,1.60
2022-09-01T02:09:21.131Z,2.10
2022-09-01T02:11:48.070Z,2.57
2022-09-01T02:14:16.093Z,2.23
2022-09-01T02:16:43.103Z,2.10
2022-09-01T02:19:12.185Z,1.80
2022-09-01T02:21:43.526Z,2.23
2022-09-01T02:24:11.057Z,2.53
2022-09-01T02:26:42.079Z,2.47
2022-09-01T02:29:18.915Z,2.50
2022-09-01T02:31:46.509Z,2.37
2022-09-01T02:34:13.991Z,2.10
2022-09-01T02:36:49.102Z,2.40
2022-09-01T02:39:26.618Z,2.40
2022-09-01T02:41:53.757Z,2.20
2022-09-01T02:44:24.392Z,1.97
2022-09-01T02:46:50.950Z,2.10
2022-09-01T02:49:28.123Z,2.20
2022-09-01T02:52:01.424Z,1.87
2022-09-01T02:54:30.976Z,2.17
2022-09-01T02:56:57.477Z,2.17
2022-09-01T02:59:27.369Z,2.23
2022-09-01T03:01:57.387Z,2.53
2022-09-01T03:04:24.358Z,2.13
2022-09-01T03:06:54.935Z,2.53
2022-09-01T03:09:22.914Z,2.53
2022-09-01T03:11:52.598Z,2.30
2022-09-01T03:14:19.842Z,1.90
2022-09-01T03:16:46.335Z,2.73
2022-09-01T03:19:15.000Z,2.30
2022-09-01T03:21:43.867Z,2.60
2022-09-01T03:24:15.060Z,2.63
2022-09-01T03:26:43.155Z,2.60
2022-09-01T03:29:09.824Z,2.33
2022-09-01T03:31:37.339Z,2.50
2022-09-01T03:34:05.938Z,2.73
2022-09-01T03:36:36.669Z,2.30
2022-09-01T03:39:03.513Z,2.60
2022-09-01T03:41:32.602Z,2.37
2022-09-01T03:43:59.758Z,2.47
2022-09-01T03:46:36.850Z,2.40
2022-09-01T03:49:07.779Z,2.70
2022-09-01T03:51:38.784Z,2.43
2022-09-01T03:54:05.546Z,2.47
2022-09-01T03:56:32.893Z,2.87
2022-09-01T03:59:00.537Z,2.50
2022-09-01T04:01:31.452Z,2.73
2022-09-01T04:03:58.441Z,2.63
2022-09-01T04:06:30.615Z,2.63
2022-09-01T04:09:02.504Z,2.63
2022-09-01T04:11:33.348Z,2.30
2022-09-01T04:14:01.022Z,2.90
2022-09-01T04:16:50.476Z,2.67
2022-09-01T04:19:26.067Z,2.77
2022-09-01T04:21:56.500Z,2.70
2022-09-01T04:24:27.901Z,2.70
2022-09-01T04:26:58.516Z,2.60
2022-09-01T04:29:28.400Z,3.13
2022-09-01T04:32:01.948Z,3.23
2022-09-01T04:34:37.035Z,3.03
2022-09-01T04:37:09.064Z,3.03
2022-09-01T04:39:36.792Z,2.63
2022-09-01T04:42:08.960Z,2.90
2022-09-01T04:44:36.626Z,2.73
2022-09-01T04:47:05.935Z,2.47
2022-09-01T04:49:33.704Z,2.63
2022-09-01T04:52:00.580Z,2.83
2022-09-01T04:54:27.403Z,2.77
2022-09-01T04:56:54.913Z,2.87
2022-09-01T04:59:24.303Z,2.80
2022-09-01T05:01:55.509Z,2.67
2022-09-01T05:04:24.826Z,2.70
2022-09-01T05:07:00.784Z,2.53
2022-09-01T05:09:38.289Z,3.50
2022-09-01T05:12:21.873Z,2.87
2022-09-01T05:14:48.549Z,2.50
2022-09-01T05:17:19.302Z,3.50
2022-09-01T05:19:48.638Z,2.97
2022-09-01T05:22:21.933Z,3.10
2022-09-01T05:25:11.636Z,3.10
2022-09-01T05:27:41.339Z,3.27
2022-09-01T05:30:08.782Z,2.50
2022-09-01T05:32:39.850Z,2.60
2022-09-01T05:35:08.252Z,2.50
2022-09-01T05:37:37.469Z,2.73
2022-09-01T05:40:06.957Z,2.63
2022-09-01T05:42:37.420Z,2.93
2022-09-01T05:45:04.326Z,3.23
2022-09-01T05:47:30.993Z,3.27
2022-09-01T05:49:58.402Z,3.50
2022-09-01T05:52:26.245Z,2.23
2022-09-01T05:54:53.815Z,2.30
2022-09-01T05:57:35.847Z,2.53
2022-09-01T06:00:10.770Z,2.50
2022-09-01T06:02:40.914Z,2.90
2022-09-01T06:05:08.799Z,2.80
2022-09-01T06:07:40.729Z,2.20
2022-09-01T06:10:07.951Z,2.53
2022-09-01T06:12:34.646Z,2.30
2022-09-01T06:15:01.227Z,2.80
2022-09-01T06:17:28.829Z,2.17
2022-09-01T06:19:58.405Z,2.73
2022-09-01T06:22:28.237Z,2.50
2022-09-01T06:25:02.266Z,2.80
2022-09-01T06:27:38.577Z,2.70
2022-09-01T06:30:14.676Z,2.17
2022-09-01T06:32:44.808Z,2.60
2022-09-01T06:35:12.218Z,2.83
2022-09-01T06:37:39.175Z,2.93
2022-09-01T06:40:17.004Z,2.93
2022-09-01T06:42:47.684Z,2.70
2022-09-01T06:45:17.625Z,2.87
2022-09-01T06:47:45.007Z,2.73
2022-09-01T06:51:14.466Z,2.00
2022-09-01T06:55:57.910Z,2.83
2022-09-01T06:58:25.441Z,3.30
2022-09-01T07:00:52.943Z,2.80
2022-09-01T07:03:20.130Z,3.20
2022-09-01T07:06:05.390Z,3.27
2022-09-01T07:12:28.920Z,1.77
2022-09-01T07:17:52.059Z,3.20
2022-09-01T07:20:23.965Z,2.70
2022-09-01T07:23:10.697Z,2.63
2022-09-01T07:26:01.001Z,2.40
2022-09-01T07:29:04.285Z,2.60
2022-09-01T07:34:41.668Z,2.60
2022-09-01T07:38:47.565Z,2.23
2022-09-01T07:43:07.319Z,2.80
2022-09-01T07:45:59.074Z,1.97
2022-09-01T07:48:36.735Z,1.90
2022-09-01T07:51:35.992Z,1.90
2022-09-01T07:54:03.680Z,2.23
2022-09-01T07:56:30.446Z,1.40
2022-09-01T07:58:58.594Z,2.03
2022-09-01T08:01:27.522Z,1.63
2022-09-01T08:03:57.364Z,1.77
2022-09-01T08:06:27.885Z,1.60
2022-09-01T08:08:57.313Z,2.13
2022-09-01T08:11:58.210Z,1.90
2022-09-01T08:14:13.445Z,1.83
2022-09-01T08:16:40.300Z,1.57
2022-09-01T08:23:27.241Z,1.43
2022-09-01T08:25:54.282Z,1.40
2022-09-01T08:28:26.504Z,1.73
2022-09-01T08:30:53.288Z,1.50
2022-09-01T08:33:23.017Z,1.40
2022-09-01T08:35:49.512Z,1.17
2022-09-01T08:38:17.370Z,1.20
2022-09-01T08:40:56.411Z,1.30
2022-09-01T08:44:04.808Z,1.73
2022-09-01T08:46:37.506Z,1.47
2022-09-01T08:49:27.615Z,1.30
2022-09-01T08:52:26.270Z,1.87
2022-09-01T08:55:00.439Z,1.40
2022-09-01T08:57:31.773Z,1.03
2022-09-01T09:00:28.463Z,1.77
2022-09-01T09:03:40.496Z,1.00
2022-09-01T09:06:07.687Z,0.93
2022-09-01T09:08:33.999Z,1.47
2022-09-01T09:11:25.231Z,1.17
2022-09-01T09:14:06.874Z,1.20
2022-09-01T09:16:38.014Z,1.10
2022-09-01T09:19:11.177Z,1.57
2022-09-01T09:21:40.817Z,2.23
2022-09-01T09:24:16.571Z,1.00
2022-09-01T09:26:51.278Z,2.83
2022-09-01T09:29:18.019Z,1.20
2022-09-01T09:31:49.958Z,1.50
2022-09-01T09:34:38.064Z,1.20
2022-09-01T09:37:21.322Z,1.00
2022-09-01T09:40:02.645Z,1.20
2022-09-01T09:42:34.895Z,1.00
2022-09-01T09:45:04.248Z,0.90
2022-09-01T09:47:43.635Z,1.10
2022-09-01T09:50:17.175Z,1.00
2022-09-01T09:52:46.806Z,1.27
2022-09-01T09:55:29.094Z,0.93
2022-09-01T09:58:08.716Z,0.93
2022-09-01T10:00:36.075Z,1.90
2022-09-01T10:03:10.201Z,1.37
2022-09-01T10:05:39.803Z,1.20
2022-09-01T10:08:15.093Z,1.10
2022-09-01T10:10:45.989Z,1.20
2022-09-01T10:13:24.867Z,1.20
2022-09-01T10:15:57.076Z,1.53
2022-09-01T10:18:29.535Z,1.40
2022-09-01T10:21:08.571Z,1.40
2022-09-01T10:23:37.587Z,1.23
2022-09-01T10:26:14.495Z,1.00
2022-09-01T10:28:49.602Z,1.10
2022-09-01T10:31:17.975Z,0.80
2022-09-01T10:33:45.069Z,0.97
2022-09-01T10:36:14.288Z,1.20
2022-09-01T10:38:46.356Z,1.17
2022-09-01T10:41:43.909Z,1.17
2022-09-01T10:44:33.658Z,1.30
2022-09-01T10:47:29.881Z,1.47
2022-09-01T10:50:01.256Z,1.23
2022-09-01T10:52:43.881Z,1.20
2022-09-01T10:55:25.022Z,1.17
2022-09-01T10:58:07.797Z,1.40
2022-09-01T11:03:51.496Z,1.30
2022-09-01T11:06:34.061Z,1.40
2022-09-01T11:09:02.906Z,1.67
2022-09-01T11:11:51.332Z,1.57
2022-09-01T11:14:21.897Z,1.53
2022-09-01T11:17:25.143Z,1.20
2022-09-01T11:19:57.013Z,1.70
2022-09-01T11:22:32.508Z,1.33
2022-09-01T11:25:11.749Z,1.47
2022-09-01T11:27:48.023Z,1.03
2022-09-01T11:30:17.182Z,1.50
2022-09-01T11:32:47.230Z,1.53
2022-09-01T11:35:21.561Z,1.63
2022-09-01T11:37:54.968Z,1.30
2022-09-01T11:40:29.674Z,1.33
2022-09-01T11:43:01.787Z,1.20
2022-09-01T11:45:33.821Z,1.70
2022-09-01T11:48:07.621Z,1.20
2022-09-01T11:50:35.420Z,1.33
2022-09-01T11:53:08.642Z,1.50
2022-09-01T11:55:41.618Z,1.60
2022-09-01T11:58:17.630Z,1.50
2022-09-01T12:00:44.454Z,1.40
2022-09-01T12:03:25.004Z,1.43
2022-09-01T12:06:01.499Z,1.60
2022-09-01T12:08:30.443Z,1.30
2022-09-01T12:11:20.154Z,1.70
2022-09-01T12:14:00.613Z,1.80
2022-09-01T12:16:29.298Z,1.80
2022-09-01T12:18:56.772Z,1.73
2022-09-01T12:21:25.816Z,1.77
2022-09-01T12:23:52.554Z,1.80
2022-09-01T12:26:25.130Z,1.30
2022-09-01T12:28:52.948Z,1.87
2022-09-01T12:31:21.738Z,1.80
2022-09-01T12:33:48.525Z,1.73
2022-09-01T12:36:31.668Z,1.53
2022-09-01T12:39:18.058Z,1.80
2022-09-01T12:41:46.454Z,1.93
2022-09-01T12:44:34.328Z,1.50
2022-09-01T12:47:10.408Z,1.47
2022-09-01T12:49:47.797Z,1.80
2022-09-01T12:52:20.069Z,2.13
2022-09-01T12:54:50.099Z,2.00
2022-09-01T12:57:30.405Z,1.50
2022-09-01T13:00:52.309Z,1.67
2022-09-01T13:03:20.015Z,1.47
2022-09-01T13:05:59.078Z,1.60
2022-09-01T13:08:28.213Z,1.60
2022-09-01T13:10:56.040Z,1.67
2022-09-01T13:13:24.158Z,1.80
2022-09-01T13:15:53.812Z,1.40
2022-09-01T13:18:22.707Z,1.83
2022-09-01T13:20:51.331Z,1.40
2022-09-01T13:23:18.038Z,1.30
2022-09-01T13:25:44.782Z,1.67
2022-09-01T13:28:11.466Z,1.90
2022-09-01T13:30:38.588Z,1.70
2022-09-01T13:33:28.406Z,1.50
2022-09-01T13:35:52.098Z,1.30
2022-09-01T13:38:19.395Z,1.40
2022-09-01T13:40:47.776Z,1.17
2022-09-01T13:43:15.885Z,1.50
2022-09-01T13:45:42.800Z,1.30
2022-09-01T13:48:15.695Z,1.10
2022-09-01T13:53:29.206Z,1.40
2022-09-01T13:58:27.094Z,1.50
2022-09-01T14:00:53.734Z,1.33
2022-09-01T14:03:23.327Z,1.20
2022-09-01T14:05:50.854Z,1.30
2022-09-01T14:08:20.734Z,1.33
2022-09-01T14:10:50.615Z,1.03
2022-09-01T14:13:17.918Z,1.40
2022-09-01T14:15:44.567Z,1.13
2022-09-01T14:18:11.082Z,1.13
2022-09-01T14:20:42.167Z,1.23
2022-09-01T14:23:10.689Z,1.20
2022-09-01T14:25:41.996Z,1.30
2022-09-01T14:28:08.315Z,1.20
2022-09-01T14:30:35.053Z,1.20
2022-09-01T14:33:02.574Z,1.30
2022-09-01T14:35:33.112Z,1.47
2022-09-01T14:38:00.774Z,1.60
2022-09-01T14:40:29.164Z,1.40
2022-09-01T14:42:55.691Z,1.60
2022-09-01T14:45:25.355Z,2.10
2022-09-01T14:47:54.690Z,1.20
2022-09-01T14:50:23.374Z,1.20
2022-09-01T14:52:52.726Z,1.43
2022-09-01T14:55:19.264Z,1.67
2022-09-01T14:57:45.638Z,1.33
2022-09-01T15:00:13.298Z,1.47
2022-09-01T15:02:41.265Z,1.27
2022-09-01T15:05:09.062Z,1.43
2022-09-01T15:07:35.601Z,1.60
2022-09-01T15:10:02.133Z,1.43
2022-09-01T15:12:30.992Z,1.23
2022-09-01T15:14:58.895Z,1.30
2022-09-01T15:17:25.919Z,1.20
2022-09-01T15:19:52.343Z,1.20
2022-09-01T15:22:19.618Z,1.20
2022-09-01T15:24:46.772Z,1.30
2022-09-01T15:27:13.383Z,1.40
2022-09-01T15:29:47.856Z,1.17
2022-09-01T15:32:20.745Z,1.10
2022-09-01T15:34:54.949Z,1.27
2022-09-01T15:37:21.380Z,1.20
2022-09-01T15:39:47.689Z,1.50
2022-09-01T15:44:43.430Z,1.20
2022-09-01T15:47:09.842Z,1.20
2022-09-01T15:49:36.229Z,1.53
2022-09-01T15:52:02.712Z,1.73
2022-09-01T15:54:30.664Z,1.40
2022-09-01T15:56:57.476Z,1.27
2022-09-01T15:59:23.865Z,1.10
2022-09-01T16:01:53.000Z,1.20
2022-09-01T16:04:24.097Z,1.10
2022-09-01T16:06:56.376Z,1.00
2022-09-01T16:09:22.699Z,1.30
2022-09-01T16:11:49.001Z,1.30
2022-09-01T16:14:15.965Z,0.93
2022-09-01T16:16:54.263Z,1.00
2022-09-01T16:19:33.341Z,1.10
2022-09-01T16:22:28.081Z,1.30
2022-09-01T16:25:00.706Z,1.50
2022-09-01T16:27:34.629Z,1.10
2022-09-01T16:30:03.491Z,1.60
2022-09-01T16:32:31.397Z,1.40
2022-09-01T16:34:57.880Z,1.00
2022-09-01T16:37:53.500Z,1.33
2022-09-01T16:40:44.638Z,1.20
2022-09-01T16:43:32.731Z,1.30
2022-09-01T16:46:08.323Z,1.30
2022-09-01T16:49:28.888Z,1.50
2022-09-01T16:52:15.164Z,1.17
2022-09-01T16:55:13.007Z,0.97
2022-09-01T16:57:59.438Z,1.23
2022-09-01T17:00:37.958Z,1.00
2022-09-01T17:03:17.022Z,1.27
2022-09-01T17:05:48.272Z,1.30
2022-09-01T17:08:22.662Z,1.50
2022-09-01T17:11:25.674Z,1.20
2022-09-01T17:13:52.269Z,1.30
2022-09-01T17:16:28.981Z,1.20
2022-09-01T17:18:57.302Z,1.30
2022-09-01T17:21:33.172Z,1.20
2022-09-01T17:24:17.670Z,1.20
2022-09-01T17:26:47.664Z,1.30
2022-09-01T17:29:25.530Z,1.70
2022-09-01T17:32:18.926Z,2.20
2022-09-01T17:35:23.569Z,1.20
2022-09-01T17:38:14.387Z,1.53
2022-09-01T17:40:55.943Z,1.17
2022-09-01T17:43:32.201Z,1.37
2022-09-01T17:46:14.649Z,1.30
2022-09-01T17:48:50.489Z,1.10
2022-09-01T17:51:16.837Z,1.30
2022-09-01T17:53:52.168Z,1.53
2022-09-01T17:56:42.303Z,1.20
2022-09-01T17:59:16.732Z,1.23
2022-09-01T18:01:49.353Z,1.47
2022-09-01T18:04:22.021Z,1.80
2022-09-01T18:06:57.461Z,1.33
2022-09-01T18:09:25.513Z,1.47
2022-09-01T18:12:04.443Z,1.40
2022-09-01T18:14:49.745Z,1.93
2022-09-01T18:17:28.513Z,2.20
2022-09-01T18:20:09.996Z,1.50
2022-09-01T18:22:43.138Z,1.97
2022-09-01T18:25:18.761Z,1.70
2022-09-01T18:27:46.622Z,2.00
2022-09-01T18:30:19.141Z,2.00
2022-09-01T18:32:48.737Z,1.90
2022-09-01T18:35:28.685Z,2.00
2022-09-01T18:38:07.892Z,1.90
2022-09-01T18:40:51.022Z,2.23
2022-09-01T18:43:23.863Z,2.33
2022-09-01T18:45:55.295Z,1.90
2022-09-01T18:48:33.449Z,1.93
2022-09-01T18:51:11.878Z,2.77
2022-09-01T18:53:47.716Z,3.20
2022-09-01T18:56:38.104Z,1.93
2022-09-01T18:59:25.688Z,2.03
2022-09-01T19:02:17.503Z,2.00
2022-09-01T19:04:45.904Z,1.50
2022-09-01T19:07:35.603Z,1.67
2022-09-01T19:10:28.753Z,2.00
2022-09-01T19:13:01.257Z,2.10
2022-09-01T19:15:27.627Z,1.90
2022-09-01T19:18:14.418Z,2.07
2022-09-01T19:20:55.090Z,2.20
2022-09-01T19:23:49.632Z,1.87
2022-09-01T19:26:21.199Z,1.50
2022-09-01T19:29:12.407Z,2.40
2022-09-01T19:31:42.886Z,2.30
2022-09-01T19:34:26.386Z,2.30
2022-09-01T19:37:00.980Z,2.87
2022-09-01T19:39:34.693Z,2.50
2022-09-01T19:42:03.258Z,2.20
2022-09-01T19:44:39.665Z,1.80
2022-09-01T19:47:18.267Z,2.13
2022-09-01T19:49:54.784Z,2.50
2022-09-01T19:52:40.289Z,2.40
2022-09-01T19:55:15.430Z,2.40
2022-09-01T19:58:03.405Z,2.00
2022-09-01T20:00:52.339Z,2.00
2022-09-01T20:03:44.526Z,2.47
2022-09-01T20:06:18.965Z,2.33
2022-09-01T20:08:59.742Z,2.13
2022-09-01T20:11:51.749Z,2.33
2022-09-01T20:14:38.236Z,1.97
2022-09-01T20:17:06.331Z,1.80
2022-09-01T20:19:38.478Z,2.40
2022-09-01T20:22:42.821Z,1.93
2022-09-01T20:25:19.905Z,2.00
2022-09-01T20:27:57.588Z,2.17
2022-09-01T20:30:31.119Z,2.00
2022-09-01T20:33:09.482Z,2.07
2022-09-01T20:35:48.040Z,2.10
2022-09-01T20:39:13.091Z,2.27
2022-09-01T20:41:57.318Z,2.00
2022-09-01T20:44:35.779Z,2.10
2022-09-01T20:47:05.278Z,2.37
2022-09-01T20:49:34.673Z,2.30
2022-09-01T20:52:14.345Z,2.27
2022-09-01T20:54:48.257Z,2.50
2022-09-01T20:57:35.392Z,1.90
2022-09-01T21:00:15.261Z,2.20
2022-09-01T21:02:41.546Z,1.63
2022-09-01T21:05:26.526Z,2.47
2022-09-01T21:08:34.270Z,1.70
2022-09-01T21:11:17.961Z,1.93
2022-09-01T21:13:47.278Z,1.83
2022-09-01T21:16:36.799Z,2.07
2022-09-01T21:19:29.423Z,2.20
2022-09-01T21:21:55.757Z,2.20
2022-09-01T21:24:22.128Z,2.50
2022-09-01T21:26:54.878Z,2.73
2022-09-01T21:29:43.509Z,2.63
2022-09-01T21:32:11.702Z,2.10
2022-09-01T21:34:38.054Z,2.20
2022-09-01T21:37:04.392Z,2.03
2022-09-01T21:39:30.759Z,2.53
2022-09-01T21:41:57.503Z,2.20
2022-09-01T21:44:24.264Z,1.97
2022-09-01T21:46:50.739Z,1.67
2022-09-01T21:49:17.393Z,1.90
2022-09-01T21:51:43.813Z,2.53
2022-09-01T21:54:10.309Z,1.70
2022-09-01T21:56:37.670Z,2.53
2022-09-01T21:59:05.340Z,2.60
2022-09-01T22:01:35.341Z,2.50
2022-09-01T22:04:04.240Z,2.40
2022-09-01T22:06:31.836Z,2.43
2022-09-01T22:09:00.776Z,2.60
2022-09-01T22:11:28.889Z,2.57
2022-09-01T22:13:58.071Z,3.50
2022-09-01T22:16:24.569Z,2.30
2022-09-01T22:18:51.353Z,2.17
2022-09-01T22:21:18.475Z,2.43
2022-09-01T22:23:45.469Z,3.00
2022-09-01T22:26:20.793Z,2.20
2022-09-01T22:28:48.301Z,2.00
2022-09-01T22:31:19.549Z,2.53
2022-09-01T22:33:46.418Z,2.77
2022-09-01T22:36:20.546Z,2.43
2022-09-01T22:38:46.904Z,2.40
2022-09-01T22:41:17.878Z,2.33
2022-09-01T22:43:44.285Z,1.90
2022-09-01T22:46:10.682Z,2.60
2022-09-01T22:48:37.081Z,2.50
2022-09-01T22:51:08.349Z,2.20
2022-09-01T22:53:36.817Z,2.60
2022-09-01T22:56:10.978Z,2.27
2022-09-01T22:58:37.474Z,2.83
2022-09-01T23:01:04.107Z,2.87
2022-09-01T23:03:30.527Z,2.03
2022-09-01T23:06:27.525Z,2.70
2022-09-01T23:08:56.635Z,1.73
2022-09-01T23:11:23.357Z,2.23
2022-09-01T23:13:50.049Z,2.53
2022-09-01T23:16:16.859Z,2.27
2022-09-01T23:18:46.219Z,2.03
2022-09-01T23:21:15.064Z,2.33
2022-09-01T23:23:41.877Z,2.77
2022-09-01T23:26:10.739Z,2.50
2022-09-01T23:28:38.445Z,2.57
2022-09-01T23:31:08.632Z,2.37
2022-09-01T23:33:35.037Z,2.30
2022-09-01T23:36:01.480Z,2.30
2022-09-01T23:38:28.726Z,2.80
2022-09-01T23:40:55.959Z,2.63
2022-09-01T23:43:24.576Z,2.90
2022-09-01T23:45:56.457Z,3.00
2022-09-01T23:48:24.750Z,3.13
2022-09-01T23:50:54.129Z,3.27
2022-09-01T23:53:23.672Z,3.27
2022-09-01T23:55:55.154Z,3.10
2022-09-01T23:58:23.964Z,3.20
